Skip to main content

NOAA/GLERL Met Station at Muskegon, MI

Previous 3 Hours (2 minute increments)
See also Previous 5 Days (top of hour)
Jump down to Data
Switch to [English][Metric]
Zoom: Click and drag, Pan: shift-click and drag, Unzoom: double-click, Unzoom All






See also 1-day windrose plot


NOAA/GLERL Met Station at Muskegon, MI

Previous 3 Hours (2 minute increments)
See also Previous 5 Days (top of hour only)
Jump up to Graphs
Switch to [English][Metric]
                  Wind  Wind  Wind   Air   Dew   Rel     Sta   PAR
                   Spd   Gst   Dir  Temp    Pt   Hum    Pres uE/m2/
YYYY-MM-DD   EDT   kts   kts   deg     F     F     %   in Hg   sec
2019-08-24 17:10  10.1  13.8   349  71.2  58.0  62.5   29.60  1726
2019-08-24 17:08   9.5  12.8   349  71.4  57.7  61.5   29.60  1783
2019-08-24 17:06  11.5  13.6   348  72.1  57.3  59.1   29.60  1795
2019-08-24 17:04   6.0  11.1   356  72.3  55.6  55.1   29.60  1798
2019-08-24 17:02   8.0  11.5   353  71.1  56.6  59.8   29.60  1805
2019-08-24 17:00  11.1  13.2   340  71.4  57.9  61.8   29.61  1823
2019-08-24 16:58   8.6  10.7   350  71.8  57.4  60.0   29.61  1824
2019-08-24 16:56   5.8   9.5   355  71.8  57.8  60.9   29.61  1810
2019-08-24 16:54   6.4  10.5   354  71.8  57.1  59.3   29.61  1821
2019-08-24 16:52   7.0  10.3     3  70.9  56.9  60.9   29.61  1830
2019-08-24 16:50  10.9  13.0   346  70.5  56.7  61.2   29.61  1846
2019-08-24 16:48  11.9  13.0   346  70.9  56.5  60.0   29.61  1792
2019-08-24 16:46   9.7  12.1   351  70.9  57.1  61.3   29.61  1645
2019-08-24 16:44   8.0  11.7   349  70.9  57.2  61.4   29.61  1453
2019-08-24 16:42   9.9  11.5   349  71.2  57.1  60.5   29.61  1872
2019-08-24 16:40  10.3  12.6   346  72.0  57.1  59.0   29.61  1854
2019-08-24 16:38  10.9  13.4   350  72.3  57.3  58.6   29.61  1855
2019-08-24 16:36   8.0  10.3   355  72.1  57.9  60.3   29.61  1855
2019-08-24 16:34   9.1  10.7   347  73.2  57.9  58.1   29.62  1857
2019-08-24 16:32   6.2   9.7     9  73.8  56.7  54.6   29.62  1853
2019-08-24 16:30   6.6   9.3    16  74.1  56.8  54.2   29.62  1848
2019-08-24 16:28   6.6   8.9     7  76.1  56.2  49.5   29.62  1844
2019-08-24 16:26   5.8   8.0    47  76.3  51.5  41.4   29.62  1848
2019-08-24 16:24   7.4   8.4    63  75.9  50.8  40.8   29.62  1851
2019-08-24 16:22   7.0   9.3    50  75.4  50.7  41.4   29.61  1852
2019-08-24 16:20   7.6   8.9    63  75.4  50.2  40.7   29.62  1854
2019-08-24 16:18   8.2  11.5    81  75.6  50.6  41.0   29.62  1856
2019-08-24 16:16   6.6   9.1    93  75.6  50.7  41.2   29.62  1852
2019-08-24 16:14   4.9   6.4    68  75.2  50.3  41.1   29.62  1855
2019-08-24 16:12   6.4   8.6    72  74.8  50.1  41.2   29.62  1855
2019-08-24 16:10   8.0   9.5    66  74.5  49.8  41.3   29.62  1863
2019-08-24 16:08   8.6   9.9    67  74.5  50.0  41.6   29.62  1872
2019-08-24 16:06   9.1  11.3    72  74.8  50.5  41.9   29.62  1876
2019-08-24 16:04   9.7  12.4    69  75.2  50.8  41.9   29.62  1873
2019-08-24 16:02   6.6   8.0    66  74.8  50.5  41.8   29.62  1874
2019-08-24 16:00   6.8   9.3    69  75.0  49.8  40.5   29.62  1866
2019-08-24 15:58   7.4   8.9    62  74.8  50.3  41.6   29.62  1865
2019-08-24 15:56   7.4   9.7    72  74.7  49.9  41.2   29.62  1864
2019-08-24 15:54   7.2   8.4    67  74.5  50.0  41.6   29.62  1863
2019-08-24 15:52   8.4   9.9    72  75.0  50.0  40.8   29.62  1863
2019-08-24 15:50   7.8  11.7    76  75.4  50.6  41.2   29.62  1861
2019-08-24 15:48   6.2   9.7    96  75.2  50.3  41.1   29.63  1857
2019-08-24 15:46   7.4  11.1    82  75.6  51.0  41.7   29.63  1851
2019-08-24 15:44   3.9   6.4   111  75.4  50.6  41.2   29.63  1849
2019-08-24 15:42   5.4   8.7    82  75.0  50.6  41.7   29.63  1667
2019-08-24 15:40   4.1   7.2    82  74.5  50.0  41.6   29.63  1099
2019-08-24 15:38   5.6   7.4    96  74.3  50.1  42.0   29.63  1189
2019-08-24 15:36   5.8   8.7    82  74.1  49.7  41.6   29.64  1091
2019-08-24 15:34   8.2  11.3    91  74.3  49.6  41.3   29.64   751
2019-08-24 15:32   4.9   6.8   107  74.5  49.7  41.1   29.64  1597
2019-08-24 15:30   6.2   8.7    97  74.8  49.8  40.8   29.64   958
2019-08-24 15:28   6.0   8.7    87  75.0  50.4  41.5   29.64  1599
2019-08-24 15:26   7.0  10.7    83  74.7  50.9  42.8   29.64  1562
2019-08-24 15:24   8.6  11.9    68  74.3  50.5  42.6   29.64  1176
2019-08-24 15:22   8.0   9.3    68  74.3  50.0  41.8   29.64  1442
2019-08-24 15:20   3.7   5.8    78  74.1  50.2  42.5   29.64  1324
2019-08-24 15:18   5.2   7.4    91  74.7  50.3  41.8   29.64  1700
2019-08-24 15:16   5.6   7.8    69  74.5  50.1  41.7   29.64  1901
2019-08-24 15:14   6.6   9.3    61  73.9  49.8  42.1   29.64  1903
2019-08-24 15:12   6.0   9.1    94  73.9  49.2  41.1   29.64  1901
2019-08-24 15:10   5.4   9.5    96  73.9  49.6  41.7   29.64  1898
2019-08-24 15:08   6.2   8.9    86  73.8  49.9  42.5   29.64  1896
2019-08-24 15:06   7.2   8.4    93  73.6  49.7  42.5   29.64  1900
2019-08-24 15:04   5.4   8.7    90  73.6  50.1  43.0   29.64  1900
2019-08-24 15:02   5.1   6.6   107  73.4  50.0  43.1   29.64  1902
2019-08-24 15:00   4.7   6.0    89  73.6  50.1  43.1   29.64  1900
2019-08-24 14:58   6.2   9.5   101  73.4  50.1  43.3   29.64  1902
2019-08-24 14:56   6.4   9.9   122  73.6  49.9  42.7   29.64  1903
2019-08-24 14:54   7.6  10.9   103  73.8  50.3  43.2   29.64  1903
2019-08-24 14:52   4.9   7.6    98  73.2  50.0  43.5   29.64  1905
2019-08-24 14:50   8.2   9.9    97  73.4  50.0  43.2   29.64  1908
2019-08-24 14:48   8.0  11.5    96  73.8  50.6  43.6   29.64  1908
2019-08-24 14:46   6.8  10.1   105  73.8  50.5  43.5   29.64  1904
2019-08-24 14:44   4.9   7.6    95  73.4  50.5  44.0   29.64  1902
2019-08-24 14:42   4.1   6.8    82  72.5  50.1  44.7   29.64  1900
2019-08-24 14:40   6.2   8.4   103  72.3  49.3  43.6   29.64  1899
2019-08-24 14:38   6.6   8.6   117  72.5  49.6  43.8   29.64  1899
2019-08-24 14:36   7.4   9.7   111  72.9  49.5  43.1   29.64  1902
2019-08-24 14:34   9.5  10.9   101  73.2  49.7  43.0   29.64  1902
2019-08-24 14:32   7.2  10.1   100  73.2  50.0  43.4   29.64  1901
2019-08-24 14:30   7.6   9.9   101  73.2  49.7  42.9   29.64  1902
2019-08-24 14:28   6.4   9.7   109  73.2  49.5  42.6   29.64  1899
2019-08-24 14:26   5.1   7.8    75  73.4  49.1  41.7   29.64  1898
2019-08-24 14:24   6.6  11.5    97  73.0  49.4  42.7   29.64  1897
2019-08-24 14:22   5.4   7.8   100  72.7  49.2  42.9   29.64  1896
2019-08-24 14:20   7.6   9.9   104  72.7  49.3  43.1   29.64  1897
2019-08-24 14:18   8.9  12.6   103  72.7  50.0  44.2   29.64  1900
2019-08-24 14:16   7.2  11.5   104  72.5  50.2  44.8   29.64  1900
2019-08-24 14:14   7.6  11.1   106  72.9  50.3  44.4   29.64  1901
2019-08-24 14:12   7.2  12.2   103  72.3  50.2  45.1   29.64  1902
2019-08-24 14:10   7.8  11.9   101  72.5  49.8  44.2   29.64  1902